createdAt,value
2022-11-06T09:46:32.682Z,100982.84
2022-11-06T09:49:43.102Z,100977.78
2022-11-06T09:52:36.525Z,100982.59
2022-11-06T09:55:11.092Z,100978.75
2022-11-06T09:57:56.203Z,100977.59
2022-11-06T10:00:24.449Z,100976.09
2022-11-06T10:02:56.240Z,100969.94
2022-11-06T10:05:33.514Z,100971.09
2022-11-06T10:08:25.192Z,100966.09
2022-11-06T10:11:16.005Z,100970.41
2022-11-06T10:14:00.672Z,100975.28
2022-11-06T10:16:43.885Z,100970.25
2022-11-06T10:19:28.054Z,100970.50
2022-11-06T10:21:55.981Z,100965.88
2022-11-06T10:24:44.843Z,100961.09
2022-11-06T10:27:43.743Z,100957.34
2022-11-06T10:30:19.333Z,100953.06
2022-11-06T10:33:07.014Z,100964.38
2022-11-06T10:35:51.494Z,100958.31
2022-11-06T10:38:27.972Z,100955.31
2022-11-06T10:40:56.997Z,100949.91
2022-11-06T10:43:32.616Z,100948.66
2022-11-06T10:46:10.051Z,100941.38
2022-11-06T10:48:44.516Z,100949.97
2022-11-06T10:51:32.842Z,100946.34
2022-11-06T10:54:29.175Z,100941.56
2022-11-06T10:57:24.403Z,100947.28
2022-11-06T10:59:53.734Z,100939.31
2022-11-06T11:02:27.949Z,100932.97
2022-11-06T11:04:58.173Z,100932.84
2022-11-06T11:07:31.574Z,100932.13
2022-11-06T11:09:59.766Z,100929.00
2022-11-06T11:12:31.161Z,100925.50
2022-11-06T11:15:13.002Z,100922.38
2022-11-06T11:17:43.173Z,100923.69
2022-11-06T11:20:34.053Z,100918.97
2022-11-06T11:23:19.160Z,100908.47
2022-11-06T11:25:53.125Z,100906.97
2022-11-06T11:28:31.154Z,100905.72
2022-11-06T11:31:12.452Z,100903.84
2022-11-06T11:33:48.496Z,100898.09
2022-11-06T11:36:17.252Z,100905.84
2022-11-06T11:38:46.163Z,100899.56
2022-11-06T11:41:20.355Z,100902.31
2022-11-06T11:44:14.414Z,100887.91
2022-11-06T11:46:54.454Z,100894.16
2022-11-06T11:49:31.711Z,100896.63
2022-11-06T11:52:03.256Z,100904.75
2022-11-06T11:54:35.683Z,100895.09
2022-11-06T11:57:07.106Z,100899.31
2022-11-06T11:59:44.485Z,100884.63
2022-11-06T12:02:18.928Z,100887.84
2022-11-06T12:05:14.736Z,100889.06
2022-11-06T12:08:05.165Z,100882.31
2022-11-06T12:10:35.257Z,100883.56
2022-11-06T12:13:08.016Z,100875.19
2022-11-06T12:15:59.065Z,100872.75
2022-11-06T12:18:43.056Z,100869.19
2022-11-06T12:21:27.626Z,100860.94
2022-11-06T12:24:22.885Z,100865.66
2022-11-06T12:27:08.528Z,100849.72
2022-11-06T12:30:10.723Z,100854.16
2022-11-06T12:32:45.284Z,100846.44
2022-11-06T12:35:29.156Z,100861.75
2022-11-06T12:38:12.865Z,100848.53
2022-11-06T12:40:43.696Z,100849.66
2022-11-06T12:43:25.919Z,100843.09
2022-11-06T12:46:06.264Z,100842.06
2022-11-06T12:49:07.387Z,100835.50
2022-11-06T13:17:41.385Z,100813.81
2022-11-06T13:20:46.679Z,100806.66
2022-11-06T13:23:22.503Z,100817.88
2022-11-06T13:26:05.704Z,100816.19
2022-11-06T13:28:43.262Z,100814.63
2022-11-06T13:31:17.063Z,100816.28
2022-11-06T13:33:57.135Z,100820.47
2022-11-06T13:36:27.466Z,100816.25
2022-11-06T13:39:14.350Z,100820.28
2022-11-06T13:41:42.612Z,100817.22
2022-11-06T13:44:16.993Z,100809.78
2022-11-06T13:47:03.690Z,100808.75
2022-11-06T13:49:58.600Z,100812.72
2022-11-06T13:52:26.899Z,100805.91
2022-11-06T13:55:07.719Z,100809.53
2022-11-06T13:58:14.838Z,100807.31
2022-11-06T14:01:20.930Z,100806.94
2022-11-06T14:04:22.344Z,100803.94
2022-11-06T14:06:55.920Z,100809.53
2022-11-06T14:09:28.971Z,100813.22
2022-11-06T14:12:05.641Z,100810.66
2022-11-06T14:14:35.211Z,100803.06
2022-11-06T14:17:17.752Z,100800.72
2022-11-06T14:19:50.223Z,100799.50
2022-11-06T14:22:36.823Z,100801.09
2022-11-06T14:25:28.237Z,100790.19
2022-11-06T14:27:56.180Z,100790.13
2022-11-06T14:30:57.558Z,100786.81
2022-11-06T14:33:51.655Z,100791.16
2022-11-06T14:36:29.641Z,100793.28
2022-11-06T14:38:57.641Z,100787.78
2022-11-06T14:41:34.974Z,100792.94
2022-11-06T14:44:11.840Z,100792.22
2022-11-06T14:46:40.258Z,100781.94
2022-11-06T14:49:28.859Z,100791.25
2022-11-06T14:52:04.857Z,100790.91
2022-11-06T14:54:40.649Z,100793.84
2022-11-06T14:57:16.038Z,100801.97
2022-11-06T14:59:44.203Z,100804.38
2022-11-06T15:02:23.650Z,100799.72
2022-11-06T15:05:00.714Z,100807.53
2022-11-06T15:08:07.822Z,100810.28
2022-11-06T15:10:45.049Z,100812.59
2022-11-06T15:13:21.337Z,100811.34
2022-11-06T15:15:52.480Z,100812.16
2022-11-06T15:18:24.189Z,100804.25
2022-11-06T15:21:03.059Z,100814.22
2022-11-06T15:23:39.599Z,100805.41
2022-11-06T15:26:24.222Z,100809.16
2022-11-06T15:29:01.340Z,100803.03
2022-11-06T15:31:31.020Z,100807.84
2022-11-06T15:34:04.870Z,100807.56
2022-11-06T15:36:41.818Z,100797.91
2022-11-06T15:39:41.243Z,100810.19
2022-11-06T15:42:14.510Z,100804.44
2022-11-06T15:44:45.959Z,100798.78
2022-11-06T15:47:32.784Z,100802.75
2022-11-06T15:50:16.829Z,100805.56
2022-11-06T15:52:48.199Z,100808.41
2022-11-06T15:55:25.343Z,100807.91
2022-11-06T15:57:53.570Z,100814.59
2022-11-06T16:00:25.520Z,100811.56
2022-11-06T16:03:05.479Z,100810.63
2022-11-06T16:05:37.319Z,100810.16
2022-11-06T16:08:07.059Z,100815.56
2022-11-06T16:10:37.667Z,100817.50
2022-11-06T16:13:06.761Z,100811.88
2022-11-06T16:16:02.623Z,100813.13
2022-11-06T16:18:43.086Z,100814.25
2022-11-06T16:21:21.811Z,100811.00
2022-11-06T16:23:55.283Z,100823.81
2022-11-06T16:26:32.860Z,100820.66
2022-11-06T16:29:01.102Z,100826.72
2022-11-06T16:31:31.284Z,100819.53
2022-11-06T16:34:00.420Z,100819.34
2022-11-06T16:36:30.604Z,100830.94
2022-11-06T16:39:17.181Z,100828.38
2022-11-06T16:42:00.051Z,100829.03
2022-11-06T16:44:49.626Z,100829.38
2022-11-06T16:47:23.320Z,100820.41
2022-11-06T16:50:02.200Z,100828.72
2022-11-06T16:52:33.410Z,100826.56
2022-11-06T16:55:28.671Z,100828.81
2022-11-06T16:58:00.471Z,100823.47
2022-11-06T17:00:33.521Z,100828.81
2022-11-06T17:03:09.113Z,100822.66
2022-11-06T17:05:38.989Z,100830.44
2022-11-06T17:08:19.264Z,100833.50
2022-11-06T17:10:51.999Z,100826.22
2022-11-06T17:13:28.040Z,100833.69
2022-11-06T17:16:07.163Z,100831.16
2022-11-06T17:18:39.262Z,100835.38
2022-11-06T17:21:28.283Z,100825.28
2022-11-06T17:24:07.709Z,100827.75
2022-11-06T17:26:51.242Z,100824.31
2022-11-06T17:29:22.308Z,100835.59
2022-11-06T17:31:52.995Z,100833.78
2022-11-06T17:34:21.474Z,100840.97
2022-11-06T17:36:50.050Z,100837.31
2022-11-06T17:39:21.178Z,100838.53
2022-11-06T17:41:54.913Z,100843.81
2022-11-06T17:44:24.523Z,100841.16
2022-11-06T17:46:52.990Z,100843.53
2022-11-06T17:49:21.146Z,100849.59
2022-11-06T17:52:00.692Z,100854.72
2022-11-06T17:54:32.622Z,100847.47
2022-11-06T17:57:03.868Z,100856.13
2022-11-06T17:59:32.128Z,100851.31
2022-11-06T18:02:00.920Z,100867.34
2022-11-06T18:04:34.507Z,100858.47
2022-11-06T18:07:03.004Z,100865.75
2022-11-06T18:09:30.945Z,100864.81
2022-11-06T18:11:59.220Z,100875.56
2022-11-06T18:14:28.424Z,100874.28
2022-11-06T18:16:56.885Z,100880.25
2022-11-06T18:19:26.380Z,100874.84
2022-11-06T18:21:56.050Z,100873.41
2022-11-06T18:24:24.518Z,100872.84
2022-11-06T18:26:53.625Z,100870.28
2022-11-06T18:29:21.785Z,100870.28
2022-11-06T18:31:49.967Z,100869.59
2022-11-06T18:34:21.411Z,100869.25
2022-11-06T18:36:51.089Z,100867.13
2022-11-06T18:39:19.998Z,100873.84
2022-11-06T18:41:49.334Z,100874.97
2022-11-06T18:44:18.461Z,100875.22
2022-11-06T18:46:47.546Z,100872.50
2022-11-06T18:49:15.866Z,100865.78
2022-11-06T18:51:44.508Z,100864.06
2022-11-06T18:54:13.182Z,100864.00
2022-11-06T18:56:41.897Z,100867.16
2022-11-06T18:59:16.440Z,100873.06
2022-11-06T19:01:45.000Z,100868.69
2022-11-06T19:04:13.398Z,100867.16
2022-11-06T19:06:42.761Z,100857.88
2022-11-06T19:09:10.908Z,100864.59
2022-11-06T19:11:39.136Z,100873.72
2022-11-06T19:14:07.227Z,100869.38
2022-11-06T19:16:35.636Z,100877.38
2022-11-06T19:19:06.011Z,100876.41
2022-11-06T19:21:35.893Z,100874.97
2022-11-06T19:24:05.829Z,100878.66
2022-11-06T19:26:36.398Z,100873.34
2022-11-06T19:29:08.377Z,100879.75
2022-11-06T19:31:38.268Z,100883.06
2022-11-06T19:34:08.281Z,100882.72
2022-11-06T19:36:37.231Z,100877.78
2022-11-06T19:39:07.433Z,100884.63
2022-11-06T19:41:35.998Z,100882.81
2022-11-06T19:44:04.431Z,100881.44
2022-11-06T19:46:35.941Z,100875.41
2022-11-06T19:49:06.985Z,100871.97
2022-11-06T19:51:41.807Z,100871.56
2022-11-06T19:54:14.252Z,100874.19
2022-11-06T19:57:29.147Z,100872.72
2022-11-06T19:59:38.212Z,100871.59
2022-11-06T20:02:07.138Z,100876.25
2022-11-06T20:04:35.461Z,100877.47
2022-11-06T20:07:04.362Z,100877.41
2022-11-06T20:09:34.712Z,100876.31
2022-11-06T20:12:05.851Z,100871.13
2022-11-06T20:14:37.131Z,100883.09
2022-11-06T20:17:05.851Z,100887.78
2022-11-06T20:19:34.549Z,100884.19
2022-11-06T20:22:05.441Z,100894.94
2022-11-06T20:24:38.607Z,100898.56
2022-11-06T20:27:11.333Z,100903.81
2022-11-06T20:29:43.019Z,100915.63
2022-11-06T20:32:13.648Z,100908.44
2022-11-06T20:34:44.684Z,100913.59
2022-11-06T20:37:13.450Z,100909.78
2022-11-06T20:39:42.140Z,100915.94
2022-11-06T20:42:11.569Z,100918.47
2022-11-06T20:44:41.607Z,100912.97
2022-11-06T20:47:10.400Z,100918.50
2022-11-06T20:49:40.800Z,100923.09
2022-11-06T20:52:14.156Z,100918.78
2022-11-06T20:54:47.199Z,100919.75
2022-11-06T20:57:18.919Z,100922.25
2022-11-06T20:59:48.160Z,100916.72
2022-11-06T21:02:19.403Z,100907.47
2022-11-06T21:04:48.331Z,100919.97
2022-11-06T21:07:17.239Z,100922.56
2022-11-06T21:09:45.124Z,100921.41
2022-11-06T21:12:13.388Z,100920.88
2022-11-06T21:14:41.532Z,100921.25
2022-11-06T21:17:09.930Z,100923.78
2022-11-06T21:19:37.680Z,100922.19
2022-11-06T21:22:05.912Z,100920.94
2022-11-06T21:24:34.522Z,100920.81
2022-11-06T21:27:02.741Z,100915.47
2022-11-06T21:29:30.750Z,100923.38
2022-11-06T21:31:59.076Z,100925.56
2022-11-06T21:34:27.055Z,100923.16
2022-11-06T21:37:01.180Z,100917.47
2022-11-06T21:39:34.870Z,100917.66
2022-11-06T21:42:05.024Z,100909.63
2022-11-06T21:44:33.167Z,100917.34
2022-11-06T21:47:01.776Z,100917.00
2022-11-06T21:49:29.793Z,100923.84
2022-11-06T21:52:17.945Z,100916.72
2022-11-06T21:55:05.064Z,100920.22
2022-11-06T21:57:33.477Z,100921.16
2022-11-06T22:00:01.941Z,100928.25
2022-11-06T22:02:40.199Z,100933.78
2022-11-06T22:05:08.716Z,100930.44
2022-11-06T22:07:37.230Z,100930.16
2022-11-06T22:10:05.656Z,100930.91
2022-11-06T22:12:35.076Z,100934.56
2022-11-06T22:15:03.221Z,100941.31
2022-11-06T22:17:31.745Z,100945.59
2022-11-06T22:19:59.725Z,100939.28
2022-11-06T22:22:28.506Z,100939.44
2022-11-06T22:24:56.487Z,100944.31
2022-11-06T22:27:24.804Z,100950.16
2022-11-06T22:29:52.876Z,100944.63
2022-11-06T22:32:21.301Z,100950.94
2022-11-06T22:34:49.296Z,100941.50
2022-11-06T22:37:17.786Z,100943.06
2022-11-06T22:39:49.107Z,100937.72
2022-11-06T22:42:18.137Z,100940.06
2022-11-06T22:44:46.137Z,100931.88
2022-11-06T22:47:15.087Z,100930.91
2022-11-06T22:49:43.076Z,100935.66
2022-11-06T22:52:11.428Z,100943.81
2022-11-06T22:54:39.277Z,100932.50
2022-11-06T22:57:07.438Z,100944.63
2022-11-06T22:59:35.257Z,100938.00
2022-11-06T23:02:03.803Z,100939.09
2022-11-06T23:04:31.898Z,100936.78
2022-11-06T23:07:00.390Z,100934.09
2022-11-06T23:09:28.227Z,100931.06
2022-11-06T23:11:56.178Z,100939.59
2022-11-06T23:14:24.659Z,100941.78
2022-11-06T23:17:01.242Z,100947.28
2022-11-06T23:19:32.176Z,100940.13
2022-11-06T23:22:19.219Z,100944.41
2022-11-06T23:24:48.018Z,100939.44
2022-11-06T23:27:15.879Z,100929.97
2022-11-06T23:29:44.357Z,100929.03
2022-11-06T23:32:12.541Z,100930.75
2022-11-06T23:34:40.876Z,100930.91
2022-11-06T23:37:09.776Z,100931.06
2022-11-06T23:39:37.955Z,100934.22
2022-11-06T23:42:06.007Z,100931.06
2022-11-06T23:44:53.138Z,100927.78
2022-11-06T23:47:21.639Z,100932.66
2022-11-06T23:49:50.118Z,100927.63
2022-11-06T23:52:18.895Z,100929.03
2022-11-06T23:54:47.378Z,100930.63
2022-11-06T23:57:15.613Z,100935.69
2022-11-06T23:59:44.387Z,100940.69
